createdAt,value
2023-02-15T00:02:09.613Z,100.00
2023-02-15T00:05:02.760Z,100.00
2023-02-15T00:07:29.229Z,100.00
2023-02-15T00:09:55.723Z,100.00
2023-02-15T00:12:22.196Z,100.00
2023-02-15T00:14:49.093Z,100.00
2023-02-15T00:17:20.690Z,100.00
2023-02-15T00:19:53.391Z,100.00
2023-02-15T00:22:23.385Z,100.00
2023-02-15T00:24:51.002Z,100.00
2023-02-15T00:27:17.524Z,100.00
2023-02-15T00:29:47.011Z,100.00
2023-02-15T00:32:13.520Z,100.00
2023-02-15T00:34:42.732Z,100.00
2023-02-15T00:37:09.342Z,100.00
2023-02-15T00:39:35.799Z,100.00
2023-02-15T00:42:02.497Z,100.00
2023-02-15T00:44:30.336Z,100.00
2023-02-15T00:46:56.920Z,100.00
2023-02-15T00:49:23.366Z,100.00
2023-02-15T00:51:49.859Z,100.00
2023-02-15T00:54:16.345Z,100.00
2023-02-15T00:56:49.276Z,100.00
2023-02-15T00:59:15.753Z,100.00
2023-02-15T01:01:42.476Z,100.00
2023-02-15T01:04:09.078Z,100.00
2023-02-15T01:06:35.631Z,100.00
2023-02-15T01:09:02.202Z,100.00
2023-02-15T01:11:28.716Z,100.00
2023-02-15T01:13:58.218Z,100.00
2023-02-15T01:16:28.009Z,100.00
2023-02-15T01:18:55.707Z,100.00
2023-02-15T01:21:25.070Z,100.00
2023-02-15T01:23:53.264Z,100.00
2023-02-15T01:26:21.350Z,100.00
2023-02-15T01:28:48.094Z,100.00
2023-02-15T01:31:16.918Z,100.00
2023-02-15T01:33:43.949Z,100.00
2023-02-15T01:36:11.240Z,100.00
2023-02-15T01:38:41.362Z,100.00
2023-02-15T01:41:27.212Z,100.00
2023-02-15T01:44:01.996Z,100.00
2023-02-15T01:46:31.708Z,100.00
2023-02-15T01:49:04.383Z,100.00
2023-02-15T01:51:33.553Z,100.00
2023-02-15T01:54:10.799Z,100.00
2023-02-15T01:56:40.080Z,100.00
2023-02-15T01:59:16.729Z,100.00
2023-02-15T02:01:43.391Z,100.00
2023-02-15T02:04:16.276Z,100.00
2023-02-15T02:06:42.827Z,100.00
2023-02-15T02:09:09.545Z,100.00
2023-02-15T02:11:36.078Z,100.00
2023-02-15T02:14:02.651Z,100.00
2023-02-15T02:16:59.627Z,100.00
2023-02-15T02:19:53.822Z,100.00
2023-02-15T02:22:20.283Z,100.00
2023-02-15T02:25:08.582Z,100.00
2023-02-15T02:28:08.902Z,100.00
2023-02-15T02:30:57.240Z,100.00
2023-02-15T02:33:33.103Z,100.00
2023-02-15T02:36:46.895Z,100.00
2023-02-15T02:39:38.860Z,100.00
2023-02-15T02:42:05.272Z,100.00
2023-02-15T02:44:55.187Z,100.00
2023-02-15T02:47:57.171Z,100.00
2023-02-15T02:50:28.095Z,100.00
2023-02-15T02:52:56.681Z,100.00
2023-02-15T02:55:30.350Z,100.00
2023-02-15T02:57:59.416Z,100.00
2023-02-15T03:00:28.678Z,100.00
2023-02-15T03:03:05.847Z,100.00
2023-02-15T03:05:35.717Z,100.00
2023-02-15T03:08:07.083Z,100.00
2023-02-15T03:10:36.015Z,100.00
2023-02-15T03:13:03.413Z,100.00
2023-02-15T03:15:56.374Z,100.00
2023-02-15T03:18:28.029Z,100.00
2023-02-15T03:20:57.077Z,100.00
2023-02-15T03:23:26.612Z,100.00
2023-02-15T03:25:58.487Z,100.00
2023-02-15T03:28:36.540Z,100.00
2023-02-15T03:31:07.393Z,100.00
2023-02-15T03:33:37.436Z,100.00
2023-02-15T03:36:29.502Z,100.00
2023-02-15T03:39:10.167Z,100.00
2023-02-15T03:41:45.904Z,100.00
2023-02-15T03:44:22.427Z,100.00
2023-02-15T03:47:18.958Z,100.00
2023-02-15T03:49:56.449Z,100.00
2023-02-15T03:52:26.123Z,100.00
2023-02-15T03:54:53.147Z,100.00
2023-02-15T03:57:46.205Z,100.00
2023-02-15T04:00:38.685Z,100.00
2023-02-15T04:03:23.230Z,100.00
2023-02-15T04:05:50.078Z,100.00
2023-02-15T04:08:18.474Z,100.00
2023-02-15T04:10:54.234Z,100.00
2023-02-15T04:13:22.276Z,100.00
2023-02-15T04:16:04.230Z,100.00
2023-02-15T04:19:03.096Z,100.00
2023-02-15T04:21:49.945Z,100.00
2023-02-15T04:24:38.259Z,100.00
2023-02-15T04:27:05.821Z,100.00
2023-02-15T04:29:32.820Z,100.00
2023-02-15T04:32:01.183Z,100.00
2023-02-15T04:34:27.845Z,100.00
2023-02-15T04:36:54.361Z,100.00
2023-02-15T04:39:20.835Z,100.00
2023-02-15T04:41:48.669Z,100.00
2023-02-15T04:44:15.326Z,100.00
2023-02-15T04:46:41.764Z,100.00
2023-02-15T04:49:09.413Z,100.00
2023-02-15T04:51:37.570Z,100.00
2023-02-15T04:54:04.324Z,100.00
2023-02-15T04:56:38.635Z,100.00
2023-02-15T04:59:05.255Z,100.00
2023-02-15T05:01:32.101Z,100.00
2023-02-15T05:03:58.813Z,100.00
2023-02-15T05:06:25.344Z,100.00
2023-02-15T05:08:51.870Z,100.00
2023-02-15T05:11:18.483Z,100.00
2023-02-15T05:13:44.987Z,100.00
2023-02-15T05:16:11.505Z,100.00
2023-02-15T05:18:37.999Z,100.00
2023-02-15T05:21:04.785Z,100.00
2023-02-15T05:23:31.346Z,100.00
2023-02-15T05:26:16.314Z,100.00
2023-02-15T05:28:42.878Z,100.00
2023-02-15T05:31:18.389Z,100.00
2023-02-15T05:33:45.901Z,100.00
2023-02-15T05:36:13.063Z,100.00
2023-02-15T05:38:40.195Z,100.00
2023-02-15T05:41:07.948Z,100.00
2023-02-15T05:43:34.879Z,100.00
2023-02-15T05:46:02.299Z,100.00
2023-02-15T05:48:29.376Z,100.00
2023-02-15T05:51:07.862Z,100.00
2023-02-15T05:53:36.808Z,100.00
2023-02-15T05:56:04.903Z,100.00
2023-02-15T05:58:37.406Z,100.00
2023-02-15T06:01:14.398Z,100.00
2023-02-15T06:03:41.442Z,100.00
2023-02-15T06:06:08.760Z,100.00
2023-02-15T06:08:36.785Z,100.00
2023-02-15T06:11:04.136Z,100.00
2023-02-15T06:13:34.434Z,100.00
2023-02-15T06:16:02.367Z,100.00
2023-02-15T06:18:29.124Z,100.00
2023-02-15T06:20:55.558Z,100.00
2023-02-15T06:23:22.061Z,100.00
2023-02-15T06:25:48.526Z,100.00
2023-02-15T06:28:15.273Z,100.00
2023-02-15T06:30:42.000Z,100.00
2023-02-15T06:33:08.532Z,100.00
2023-02-15T06:35:35.070Z,100.00
2023-02-15T06:38:01.568Z,100.00
2023-02-15T06:40:28.003Z,100.00
2023-02-15T06:42:54.472Z,100.00
2023-02-15T06:45:20.984Z,100.00
2023-02-15T06:47:47.461Z,100.00
2023-02-15T06:50:13.980Z,100.00
2023-02-15T06:52:40.466Z,100.00
2023-02-15T06:55:07.933Z,100.00
2023-02-15T06:57:34.524Z,100.00
2023-02-15T07:00:01.087Z,100.00
2023-02-15T07:02:27.754Z,100.00
2023-02-15T07:04:54.355Z,100.00
2023-02-15T07:07:21.020Z,100.00
2023-02-15T07:09:47.533Z,100.00
2023-02-15T07:12:32.532Z,100.00
2023-02-15T07:14:59.300Z,100.00
2023-02-15T07:17:36.853Z,100.00
2023-02-15T07:20:12.229Z,100.00
2023-02-15T07:22:39.147Z,100.00
2023-02-15T07:25:07.595Z,100.00
2023-02-15T07:27:34.184Z,100.00
2023-02-15T07:30:01.321Z,100.00
2023-02-15T07:32:32.605Z,100.00
2023-02-15T07:35:00.123Z,100.00
2023-02-15T07:37:29.748Z,100.00
2023-02-15T07:39:56.215Z,100.00
2023-02-15T07:42:23.094Z,100.00
2023-02-15T07:44:50.079Z,100.00
2023-02-15T07:47:16.690Z,100.00
2023-02-15T07:49:43.182Z,100.00
2023-02-15T07:52:09.768Z,100.00
2023-02-15T07:54:36.281Z,100.00
2023-02-15T07:57:03.086Z,100.00
2023-02-15T07:59:29.629Z,100.00
2023-02-15T08:01:57.495Z,100.00
2023-02-15T08:04:24.618Z,100.00
2023-02-15T08:06:54.145Z,100.00
2023-02-15T08:09:20.852Z,100.00
2023-02-15T08:11:48.233Z,100.00
2023-02-15T08:14:24.651Z,100.00
2023-02-15T08:17:03.636Z,100.00
2023-02-15T08:19:32.789Z,100.00
2023-02-15T08:22:02.244Z,100.00
2023-02-15T08:24:31.292Z,100.00
2023-02-15T08:26:57.950Z,100.00
2023-02-15T08:29:27.477Z,100.00
2023-02-15T08:31:56.075Z,100.00
2023-02-15T08:34:25.633Z,100.00
2023-02-15T08:36:52.248Z,100.00
2023-02-15T08:39:18.709Z,100.00
2023-02-15T08:41:46.744Z,100.00
2023-02-15T08:44:16.104Z,100.00
2023-02-15T08:46:45.100Z,100.00
2023-02-15T08:49:18.235Z,100.00
2023-02-15T08:51:48.105Z,100.00
2023-02-15T08:54:17.381Z,100.00
2023-02-15T08:56:45.132Z,100.00
2023-02-15T08:59:20.060Z,100.00
2023-02-15T09:01:47.717Z,100.00
2023-02-15T09:04:16.678Z,100.00
2023-02-15T09:06:46.404Z,100.00
2023-02-15T09:09:15.062Z,100.00
2023-02-15T09:11:43.756Z,100.00
2023-02-15T09:14:16.299Z,100.00
2023-02-15T09:16:49.757Z,100.00
2023-02-15T09:19:20.945Z,100.00
2023-02-15T09:21:47.728Z,99.24
2023-02-15T09:24:16.194Z,98.34
2023-02-15T09:26:45.503Z,99.03
2023-02-15T09:29:13.722Z,97.92
2023-02-15T09:31:45.398Z,97.79
2023-02-15T09:34:14.777Z,96.69
2023-02-15T09:36:44.369Z,97.37
2023-02-15T09:39:22.216Z,97.52
2023-02-15T09:42:19.401Z,97.62
2023-02-15T09:44:48.874Z,97.23
2023-02-15T09:47:18.842Z,98.90
2023-02-15T09:50:03.436Z,99.57
2023-02-15T09:52:44.193Z,99.43
2023-02-15T09:55:23.357Z,98.63
2023-02-15T09:58:01.091Z,99.05
2023-02-15T10:00:59.864Z,97.60
2023-02-15T10:03:32.679Z,93.80
2023-02-15T10:06:18.040Z,91.56
2023-02-15T10:09:04.098Z,88.92
2023-02-15T10:11:50.691Z,86.35
2023-02-15T10:14:20.155Z,93.96
2023-02-15T10:17:04.155Z,95.51
2023-02-15T10:20:11.590Z,96.61
2023-02-15T10:22:54.889Z,96.65
2023-02-15T10:25:51.037Z,96.88
2023-02-15T10:28:20.510Z,96.30
2023-02-15T10:30:52.483Z,93.87
2023-02-15T10:33:18.961Z,94.94
2023-02-15T10:36:04.035Z,94.46
2023-02-15T10:38:39.758Z,94.29
2023-02-15T10:41:25.280Z,95.96
2023-02-15T10:44:31.750Z,95.95
2023-02-15T10:47:19.444Z,96.17
2023-02-15T10:50:04.247Z,95.41
2023-02-15T10:52:58.086Z,93.83
2023-02-15T10:55:49.468Z,88.46
2023-02-15T10:58:16.483Z,86.32
2023-02-15T11:00:49.954Z,83.92
2023-02-15T11:03:26.218Z,83.92
2023-02-15T11:06:17.141Z,83.13
2023-02-15T11:09:00.653Z,82.42
2023-02-15T11:11:34.518Z,82.30
2023-02-15T11:14:06.353Z,80.02
2023-02-15T11:16:38.083Z,79.71
2023-02-15T11:19:30.812Z,81.21
2023-02-15T11:22:03.865Z,81.32
2023-02-15T11:24:35.652Z,81.72
2023-02-15T11:27:16.328Z,82.85
2023-02-15T11:29:53.837Z,86.05
2023-02-15T11:32:34.133Z,88.37
2023-02-15T11:35:12.949Z,89.94
2023-02-15T11:37:51.284Z,88.04
2023-02-15T11:40:20.751Z,86.46
2023-02-15T11:42:50.940Z,85.09
2023-02-15T11:45:24.008Z,86.09
2023-02-15T11:47:50.643Z,85.11
2023-02-15T11:50:23.271Z,84.73
2023-02-15T11:52:52.480Z,84.44
2023-02-15T11:55:25.003Z,82.65
2023-02-15T11:58:10.704Z,82.39
2023-02-15T12:00:46.938Z,81.41
2023-02-15T12:03:49.945Z,81.15
2023-02-15T12:06:33.527Z,85.70
2023-02-15T12:09:37.206Z,85.99
2023-02-15T12:12:24.226Z,84.83
2023-02-15T12:14:55.976Z,84.77
2023-02-15T12:17:25.644Z,83.82
2023-02-15T12:19:56.148Z,82.94
2023-02-15T12:22:26.759Z,84.06
2023-02-15T12:24:56.708Z,84.88
2023-02-15T12:27:27.738Z,86.35
2023-02-15T12:29:59.157Z,83.10
2023-02-15T12:32:32.376Z,83.13
2023-02-15T12:35:14.216Z,83.98
2023-02-15T12:37:54.780Z,84.23
2023-02-15T12:40:31.716Z,83.32
2023-02-15T12:42:59.248Z,82.91
2023-02-15T12:45:34.697Z,81.21
2023-02-15T12:48:12.976Z,80.10
2023-02-15T12:50:41.286Z,80.90
2023-02-15T12:53:23.762Z,79.93
2023-02-15T12:55:59.219Z,77.04
2023-02-15T12:58:31.443Z,79.97
2023-02-15T13:01:09.904Z,78.23
2023-02-15T13:03:56.399Z,78.16
2023-02-15T13:06:26.837Z,75.46
2023-02-15T13:08:55.861Z,74.66
2023-02-15T13:11:29.737Z,80.20
2023-02-15T13:14:01.367Z,79.26
2023-02-15T13:16:49.191Z,79.79
2023-02-15T13:19:19.149Z,82.43
2023-02-15T13:21:52.501Z,84.41
2023-02-15T13:24:21.034Z,85.60
2023-02-15T13:26:48.693Z,85.32
2023-02-15T13:29:28.941Z,88.41
2023-02-15T13:31:58.536Z,87.50
2023-02-15T13:34:31.250Z,86.86
2023-02-15T13:37:09.773Z,84.47
2023-02-15T13:39:45.404Z,82.89
2023-02-15T13:42:32.587Z,83.29
2023-02-15T13:45:14.828Z,81.71
2023-02-15T13:47:47.582Z,83.62
2023-02-15T13:50:39.729Z,83.87
2023-02-15T13:53:36.892Z,81.47
2023-02-15T13:56:08.944Z,80.96
2023-02-15T13:58:46.458Z,80.43
2023-02-15T14:01:19.739Z,82.24
2023-02-15T14:04:23.455Z,82.04
2023-02-15T14:07:08.291Z,81.51
2023-02-15T14:09:48.678Z,76.43
2023-02-15T14:12:44.890Z,76.03
2023-02-15T14:15:30.677Z,80.39
2023-02-15T14:18:09.783Z,80.54
2023-02-15T14:20:42.285Z,77.38
2023-02-15T14:23:31.045Z,77.70
2023-02-15T14:26:21.201Z,76.53
2023-02-15T14:29:03.739Z,77.47
2023-02-15T14:31:44.326Z,77.98
2023-02-15T14:34:45.336Z,78.62
2023-02-15T14:37:14.776Z,82.80
2023-02-15T14:40:16.403Z,84.80
2023-02-15T14:43:02.541Z,85.55
2023-02-15T14:45:43.825Z,83.86
2023-02-15T14:48:22.082Z,84.14
2023-02-15T14:50:49.439Z,85.66
2023-02-15T14:53:28.528Z,85.83
2023-02-15T14:56:14.649Z,83.80
2023-02-15T14:58:57.623Z,83.71
2023-02-15T15:01:36.248Z,81.85
2023-02-15T15:04:28.700Z,81.22
2023-02-15T15:07:36.246Z,81.49
2023-02-15T15:10:17.979Z,80.83
2023-02-15T15:12:45.759Z,80.31
2023-02-15T15:15:34.663Z,78.68
2023-02-15T15:18:31.038Z,78.31
2023-02-15T15:20:57.741Z,77.55
2023-02-15T15:23:24.143Z,77.34
2023-02-15T15:25:57.194Z,75.55
2023-02-15T15:28:35.832Z,76.90
2023-02-15T15:31:19.870Z,81.25
2023-02-15T15:34:24.642Z,84.67
2023-02-15T15:36:54.654Z,88.54
2023-02-15T15:40:01.296Z,90.05
2023-02-15T15:42:32.331Z,89.60
2023-02-15T15:45:20.428Z,90.89
2023-02-15T15:47:58.758Z,91.62
2023-02-15T15:50:32.226Z,92.06
2023-02-15T15:53:01.756Z,92.55
2023-02-15T15:55:31.668Z,92.80
2023-02-15T15:58:03.584Z,92.37
2023-02-15T16:00:52.610Z,92.18
2023-02-15T16:03:27.655Z,93.01
2023-02-15T16:05:56.349Z,94.48
2023-02-15T16:08:32.130Z,95.45
2023-02-15T16:10:59.300Z,96.13
2023-02-15T16:13:27.436Z,96.18
2023-02-15T16:15:56.840Z,95.88
2023-02-15T16:18:28.404Z,95.93
2023-02-15T16:21:02.554Z,95.58
2023-02-15T16:23:46.853Z,95.73
2023-02-15T16:26:49.381Z,95.04
2023-02-15T16:29:29.226Z,95.59
2023-02-15T16:32:04.004Z,95.60
2023-02-15T16:34:33.480Z,96.33
2023-02-15T16:37:16.724Z,96.14
2023-02-15T16:39:44.765Z,96.71
2023-02-15T16:42:13.176Z,96.67
2023-02-15T16:44:41.451Z,97.16
2023-02-15T16:47:22.585Z,97.81
2023-02-15T16:49:52.408Z,98.65
2023-02-15T16:52:25.744Z,98.61
2023-02-15T16:55:01.417Z,98.32
2023-02-15T16:57:35.453Z,98.42
2023-02-15T17:00:08.818Z,98.33
2023-02-15T17:02:56.465Z,98.44
2023-02-15T17:05:23.718Z,98.04
2023-02-15T17:08:16.383Z,98.41
2023-02-15T17:11:00.355Z,99.02
2023-02-15T17:13:28.575Z,98.86
2023-02-15T17:16:01.411Z,98.86
2023-02-15T17:18:33.053Z,99.09
2023-02-15T17:21:11.113Z,99.49
2023-02-15T17:23:49.433Z,99.13
2023-02-15T17:26:21.245Z,99.02
2023-02-15T17:28:59.621Z,99.01
2023-02-15T17:31:32.921Z,99.21
2023-02-15T17:34:01.406Z,99.54
2023-02-15T17:36:30.633Z,99.75
2023-02-15T17:38:59.831Z,99.70
2023-02-15T17:41:29.294Z,99.51
2023-02-15T17:43:56.009Z,99.78
2023-02-15T17:46:23.535Z,99.80
2023-02-15T17:48:52.262Z,99.68
2023-02-15T17:51:20.466Z,99.79
2023-02-15T17:54:06.114Z,99.89
2023-02-15T17:56:33.622Z,100.00
2023-02-15T17:59:00.177Z,100.00
2023-02-15T18:01:45.261Z,99.73
2023-02-15T18:04:32.523Z,99.51
2023-02-15T18:07:18.152Z,99.36
2023-02-15T18:10:03.319Z,99.25
2023-02-15T18:12:31.562Z,99.12
2023-02-15T18:14:58.771Z,99.00
2023-02-15T18:17:32.623Z,98.40
2023-02-15T18:20:01.489Z,97.86
2023-02-15T18:22:29.711Z,97.97
2023-02-15T18:24:56.189Z,98.02
2023-02-15T18:27:22.645Z,98.46
2023-02-15T18:29:49.299Z,98.62
2023-02-15T18:32:35.813Z,98.30
2023-02-15T18:35:03.538Z,98.36
2023-02-15T18:37:33.298Z,98.22
2023-02-15T18:40:03.846Z,98.50
2023-02-15T18:42:34.275Z,98.01
2023-02-15T18:45:24.820Z,97.23
2023-02-15T18:47:51.789Z,97.44
2023-02-15T18:50:20.118Z,96.98
2023-02-15T18:52:48.734Z,97.05
2023-02-15T18:55:21.065Z,97.64
2023-02-15T18:57:49.375Z,97.71
2023-02-15T19:00:22.049Z,97.32
2023-02-15T19:02:48.924Z,97.70
2023-02-15T19:05:17.820Z,97.67
2023-02-15T19:07:48.311Z,97.61
2023-02-15T19:10:26.450Z,96.96
2023-02-15T19:12:53.955Z,96.39
2023-02-15T19:15:26.856Z,96.08
2023-02-15T19:17:54.652Z,96.24
2023-02-15T19:20:45.592Z,96.21
2023-02-15T19:23:19.343Z,96.44
2023-02-15T19:25:47.192Z,96.80
2023-02-15T19:28:19.499Z,96.65
2023-02-15T19:30:46.150Z,97.33
2023-02-15T19:33:20.620Z,97.68
2023-02-15T19:35:52.463Z,97.89
2023-02-15T19:38:22.139Z,97.83
2023-02-15T19:40:48.681Z,98.04
2023-02-15T19:43:17.973Z,98.22
2023-02-15T19:45:44.925Z,97.89
2023-02-15T19:48:14.958Z,98.30
2023-02-15T19:50:43.632Z,98.49
2023-02-15T19:53:30.900Z,98.59
2023-02-15T19:55:57.472Z,98.19
2023-02-15T19:58:24.262Z,98.45
2023-02-15T20:00:51.602Z,98.36
2023-02-15T20:03:18.162Z,98.44
2023-02-15T20:05:45.482Z,98.22
2023-02-15T20:08:17.231Z,98.02
2023-02-15T20:10:45.372Z,98.37
2023-02-15T20:13:16.925Z,98.65
2023-02-15T20:15:44.285Z,98.73
2023-02-15T20:18:11.376Z,97.97
2023-02-15T20:20:44.374Z,98.10
2023-02-15T20:23:18.503Z,97.76
2023-02-15T20:25:45.423Z,96.80
2023-02-15T20:28:27.106Z,95.78
2023-02-15T20:30:54.138Z,95.53
2023-02-15T20:33:22.782Z,96.45
2023-02-15T20:35:50.759Z,96.65
2023-02-15T20:38:27.046Z,96.07
2023-02-15T20:41:14.075Z,96.19
2023-02-15T20:43:41.000Z,96.27
2023-02-15T20:46:08.000Z,96.12
2023-02-15T20:48:35.258Z,95.52
2023-02-15T20:51:02.582Z,94.97
2023-02-15T20:53:29.556Z,93.69
2023-02-15T20:55:56.571Z,92.76
2023-02-15T20:58:28.533Z,92.02
2023-02-15T21:00:56.689Z,92.36
2023-02-15T21:03:26.487Z,91.51
2023-02-15T21:05:53.152Z,90.57
2023-02-15T21:08:21.815Z,89.00
2023-02-15T21:10:50.977Z,88.61
2023-02-15T21:13:22.763Z,88.64
2023-02-15T21:15:51.700Z,88.86
2023-02-15T21:18:29.972Z,88.29
2023-02-15T21:20:59.127Z,88.91
2023-02-15T21:23:43.638Z,88.74
2023-02-15T21:26:19.459Z,89.05
2023-02-15T21:28:47.142Z,89.49
2023-02-15T21:31:20.036Z,89.04
2023-02-15T21:33:46.605Z,87.77
2023-02-15T21:36:19.881Z,87.75
2023-02-15T21:38:51.780Z,88.26
2023-02-15T21:41:54.388Z,88.84
2023-02-15T21:44:41.935Z,88.90
2023-02-15T21:47:41.504Z,88.41
2023-02-15T21:50:30.627Z,88.87
2023-02-15T21:52:57.850Z,88.60
2023-02-15T21:55:24.533Z,88.88
2023-02-15T21:57:51.041Z,89.22
2023-02-15T22:00:19.648Z,89.31
2023-02-15T22:02:48.087Z,88.92
2023-02-15T22:05:18.597Z,88.22
2023-02-15T22:07:45.901Z,88.27
2023-02-15T22:10:13.398Z,88.59
2023-02-15T22:12:43.499Z,89.19
2023-02-15T22:15:19.545Z,89.28
2023-02-15T22:17:46.118Z,89.20
2023-02-15T22:20:19.240Z,88.76
2023-02-15T22:22:53.518Z,89.14
2023-02-15T22:25:24.192Z,89.02
2023-02-15T22:27:53.170Z,89.26
2023-02-15T22:30:32.685Z,89.62
2023-02-15T22:33:00.394Z,89.07
2023-02-15T22:35:32.267Z,89.10
2023-02-15T22:37:59.076Z,89.52
2023-02-15T22:40:53.530Z,89.25
2023-02-15T22:43:51.583Z,89.32
2023-02-15T22:46:21.222Z,89.15
2023-02-15T22:48:48.874Z,89.02
2023-02-15T22:51:21.528Z,87.90
2023-02-15T22:53:49.854Z,86.68
2023-02-15T22:56:26.736Z,85.18
2023-02-15T22:59:03.799Z,83.68
2023-02-15T23:01:45.563Z,84.02
2023-02-15T23:04:24.306Z,83.25
2023-02-15T23:06:53.275Z,82.92
2023-02-15T23:09:20.245Z,82.88
2023-02-15T23:11:55.175Z,83.60
2023-02-15T23:14:38.364Z,84.31
2023-02-15T23:17:04.871Z,84.78
2023-02-15T23:19:35.352Z,85.59
2023-02-15T23:22:05.201Z,85.33
2023-02-15T23:24:34.484Z,85.34
2023-02-15T23:27:19.437Z,86.01
2023-02-15T23:29:49.371Z,86.53
2023-02-15T23:32:18.922Z,87.56
2023-02-15T23:34:46.612Z,87.75
2023-02-15T23:37:17.144Z,86.67
2023-02-15T23:40:02.183Z,85.60
2023-02-15T23:42:31.980Z,84.75
2023-02-15T23:45:01.462Z,84.63
2023-02-15T23:47:51.188Z,84.92
2023-02-15T23:50:29.499Z,84.69
2023-02-15T23:52:57.284Z,84.13
2023-02-15T23:55:31.429Z,83.88
2023-02-15T23:57:57.905Z,83.93
